sensor_id;sensor_type;location;lat;lon;timestamp;P1;durP1;ratioP1;P2;durP2;ratioP2
53646;SDS011;39550;52.230;5.194;2022-12-18T00:01:27;49.15;;;23.25;;
53646;SDS011;39550;52.230;5.194;2022-12-18T00:03:58;48.33;;;24.20;;
53646;SDS011;39550;52.230;5.194;2022-12-18T00:06:26;49.17;;;25.80;;
53646;SDS011;39550;52.230;5.194;2022-12-18T00:08:53;43.20;;;24.20;;
53646;SDS011;39550;52.230;5.194;2022-12-18T00:11:20;51.40;;;25.23;;
53646;SDS011;39550;52.230;5.194;2022-12-18T00:13:49;44.58;;;27.85;;
53646;SDS011;39550;52.230;5.194;2022-12-18T00:16:16;44.53;;;23.88;;
53646;SDS011;39550;52.230;5.194;2022-12-18T00:18:45;45.72;;;24.40;;
53646;SDS011;39550;52.230;5.194;2022-12-18T00:21:12;45.10;;;24.52;;
53646;SDS011;39550;52.230;5.194;2022-12-18T00:23:39;43.00;;;22.60;;
53646;SDS011;39550;52.230;5.194;2022-12-18T00:26:14;46.47;;;23.77;;
53646;SDS011;39550;52.230;5.194;2022-12-18T00:28:44;44.92;;;24.30;;
53646;SDS011;39550;52.230;5.194;2022-12-18T00:31:11;47.83;;;24.88;;
53646;SDS011;39550;52.230;5.194;2022-12-18T00:33:39;46.20;;;27.83;;
53646;SDS011;39550;52.230;5.194;2022-12-18T00:36:06;46.17;;;24.52;;
53646;SDS011;39550;52.230;5.194;2022-12-18T00:38:34;31.80;;;17.75;;
53646;SDS011;39550;52.230;5.194;2022-12-18T00:41:00;40.50;;;22.65;;
53646;SDS011;39550;52.230;5.194;2022-12-18T00:43:26;43.03;;;23.27;;
53646;SDS011;39550;52.230;5.194;2022-12-18T00:45:52;51.90;;;24.85;;
53646;SDS011;39550;52.230;5.194;2022-12-18T00:48:17;49.58;;;25.10;;
53646;SDS011;39550;52.230;5.194;2022-12-18T00:50:43;46.90;;;24.65;;
53646;SDS011;39550;52.230;5.194;2022-12-18T00:53:08;44.75;;;25.73;;
53646;SDS011;39550;52.230;5.194;2022-12-18T00:55:37;44.22;;;25.33;;
53646;SDS011;39550;52.230;5.194;2022-12-18T00:58:04;35.40;;;21.40;;
53646;SDS011;39550;52.230;5.194;2022-12-18T01:00:29;42.05;;;22.88;;
53646;SDS011;39550;52.230;5.194;2022-12-18T01:02:55;41.22;;;22.83;;
53646;SDS011;39550;52.230;5.194;2022-12-18T01:05:20;42.53;;;26.35;;
53646;SDS011;39550;52.230;5.194;2022-12-18T01:07:46;43.38;;;23.90;;
53646;SDS011;39550;52.230;5.194;2022-12-18T01:10:11;43.47;;;23.75;;
53646;SDS011;39550;52.230;5.194;2022-12-18T01:12:38;40.72;;;21.15;;
53646;SDS011;39550;52.230;5.194;2022-12-18T01:15:05;42.72;;;23.25;;
53646;SDS011;39550;52.230;5.194;2022-12-18T01:17:31;44.20;;;24.02;;
53646;SDS011;39550;52.230;5.194;2022-12-18T01:19:57;39.33;;;22.80;;
53646;SDS011;39550;52.230;5.194;2022-12-18T01:22:22;42.67;;;23.73;;
53646;SDS011;39550;52.230;5.194;2022-12-18T01:24:48;37.83;;;21.70;;
53646;SDS011;39550;52.230;5.194;2022-12-18T01:27:13;41.35;;;24.25;;
53646;SDS011;39550;52.230;5.194;2022-12-18T01:29:39;41.38;;;25.05;;
53646;SDS011;39550;52.230;5.194;2022-12-18T01:32:06;40.78;;;23.35;;
53646;SDS011;39550;52.230;5.194;2022-12-18T01:34:32;38.42;;;22.20;;
53646;SDS011;39550;52.230;5.194;2022-12-18T01:36:57;40.78;;;23.23;;
53646;SDS011;39550;52.230;5.194;2022-12-18T01:39:23;39.08;;;25.48;;
53646;SDS011;39550;52.230;5.194;2022-12-18T01:41:48;39.05;;;21.55;;
53646;SDS011;39550;52.230;5.194;2022-12-18T01:44:51;42.53;;;23.45;;
53646;SDS011;39550;52.230;5.194;2022-12-18T01:49:59;40.80;;;22.55;;
53646;SDS011;39550;52.230;5.194;2022-12-18T01:52:50;41.10;;;23.75;;
53646;SDS011;39550;52.230;5.194;2022-12-18T01:55:20;38.70;;;23.73;;
53646;SDS011;39550;52.230;5.194;2022-12-18T01:57:49;41.67;;;23.17;;
53646;SDS011;39550;52.230;5.194;2022-12-18T02:02:45;38.05;;;22.88;;
53646;SDS011;39550;52.230;5.194;2022-12-18T02:13:36;40.72;;;22.75;;
53646;SDS011;39550;52.230;5.194;2022-12-18T02:18:47;36.08;;;21.40;;
53646;SDS011;39550;52.230;5.194;2022-12-18T02:23:56;42.70;;;21.52;;
53646;SDS011;39550;52.230;5.194;2022-12-18T02:26:44;38.70;;;21.35;;
53646;SDS011;39550;52.230;5.194;2022-12-18T02:29:18;38.90;;;21.13;;
53646;SDS011;39550;52.230;5.194;2022-12-18T02:31:50;38.22;;;23.27;;
53646;SDS011;39550;52.230;5.194;2022-12-18T02:34:19;39.08;;;19.92;;
53646;SDS011;39550;52.230;5.194;2022-12-18T02:39:15;40.80;;;22.55;;
53646;SDS011;39550;52.230;5.194;2022-12-18T02:41:42;41.65;;;23.75;;
53646;SDS011;39550;52.230;5.194;2022-12-18T02:44:10;41.30;;;23.42;;
53646;SDS011;39550;52.230;5.194;2022-12-18T02:46:39;41.10;;;21.75;;
53646;SDS011;39550;52.230;5.194;2022-12-18T02:49:17;29.20;;;16.00;;
53646;SDS011;39550;52.230;5.194;2022-12-18T02:52:05;42.10;;;22.10;;
53646;SDS011;39550;52.230;5.194;2022-12-18T02:57:18;41.78;;;22.10;;
53646;SDS011;39550;52.230;5.194;2022-12-18T02:59:48;39.70;;;22.42;;
53646;SDS011;39550;52.230;5.194;2022-12-18T03:02:22;41.40;;;20.77;;
53646;SDS011;39550;52.230;5.194;2022-12-18T03:04:56;42.13;;;21.85;;
53646;SDS011;39550;52.230;5.194;2022-12-18T03:07:26;39.25;;;21.08;;
53646;SDS011;39550;52.230;5.194;2022-12-18T03:10:06;34.90;;;21.38;;
53646;SDS011;39550;52.230;5.194;2022-12-18T03:12:37;36.00;;;21.10;;
53646;SDS011;39550;52.230;5.194;2022-12-18T03:17:37;37.70;;;20.98;;
53646;SDS011;39550;52.230;5.194;2022-12-18T03:20:08;37.05;;;21.35;;
53646;SDS011;39550;52.230;5.194;2022-12-18T03:22:38;40.17;;;21.35;;
53646;SDS011;39550;52.230;5.194;2022-12-18T03:25:07;40.05;;;22.63;;
53646;SDS011;39550;52.230;5.194;2022-12-18T03:27:36;41.10;;;21.63;;
53646;SDS011;39550;52.230;5.194;2022-12-18T03:30:08;36.28;;;21.80;;
53646;SDS011;39550;52.230;5.194;2022-12-18T03:32:46;39.53;;;20.60;;
53646;SDS011;39550;52.230;5.194;2022-12-18T03:35:13;40.58;;;22.35;;
53646;SDS011;39550;52.230;5.194;2022-12-18T03:37:42;38.25;;;21.38;;
53646;SDS011;39550;52.230;5.194;2022-12-18T03:40:08;36.38;;;20.48;;
53646;SDS011;39550;52.230;5.194;2022-12-18T03:45:33;36.28;;;22.50;;
53646;SDS011;39550;52.230;5.194;2022-12-18T03:51:05;40.97;;;21.92;;
53646;SDS011;39550;52.230;5.194;2022-12-18T03:56:02;36.03;;;20.77;;
53646;SDS011;39550;52.230;5.194;2022-12-18T03:58:29;40.35;;;24.30;;
53646;SDS011;39550;52.230;5.194;2022-12-18T04:00:58;39.65;;;22.40;;
53646;SDS011;39550;52.230;5.194;2022-12-18T04:03:27;44.03;;;22.95;;
53646;SDS011;39550;52.230;5.194;2022-12-18T04:05:55;38.03;;;22.27;;
53646;SDS011;39550;52.230;5.194;2022-12-18T04:08:24;39.65;;;23.38;;
53646;SDS011;39550;52.230;5.194;2022-12-18T04:10:50;39.80;;;22.15;;
53646;SDS011;39550;52.230;5.194;2022-12-18T04:13:24;37.45;;;21.73;;
53646;SDS011;39550;52.230;5.194;2022-12-18T04:15:53;36.53;;;20.63;;
53646;SDS011;39550;52.230;5.194;2022-12-18T04:18:18;38.78;;;23.05;;
53646;SDS011;39550;52.230;5.194;2022-12-18T04:20:44;39.40;;;23.77;;
53646;SDS011;39550;52.230;5.194;2022-12-18T04:23:09;38.00;;;24.48;;
53646;SDS011;39550;52.230;5.194;2022-12-18T04:25:34;41.97;;;23.08;;
53646;SDS011;39550;52.230;5.194;2022-12-18T04:28:00;38.63;;;21.77;;
53646;SDS011;39550;52.230;5.194;2022-12-18T04:30:25;38.05;;;23.67;;
53646;SDS011;39550;52.230;5.194;2022-12-18T04:32:50;39.67;;;23.88;;
53646;SDS011;39550;52.230;5.194;2022-12-18T04:35:16;34.70;;;20.02;;
53646;SDS011;39550;52.230;5.194;2022-12-18T04:37:41;38.70;;;22.85;;
53646;SDS011;39550;52.230;5.194;2022-12-18T04:40:07;40.45;;;23.85;;
53646;SDS011;39550;52.230;5.194;2022-12-18T04:42:33;36.17;;;20.48;;
53646;SDS011;39550;52.230;5.194;2022-12-18T04:44:58;35.40;;;22.42;;
53646;SDS011;39550;52.230;5.194;2022-12-18T04:47:23;37.45;;;22.92;;
53646;SDS011;39550;52.230;5.194;2022-12-18T04:49:48;34.58;;;20.08;;
53646;SDS011;39550;52.230;5.194;2022-12-18T04:52:14;36.72;;;21.13;;
53646;SDS011;39550;52.230;5.194;2022-12-18T04:54:39;36.70;;;22.00;;
53646;SDS011;39550;52.230;5.194;2022-12-18T04:57:04;37.38;;;24.00;;
53646;SDS011;39550;52.230;5.194;2022-12-18T04:59:30;36.20;;;22.63;;
53646;SDS011;39550;52.230;5.194;2022-12-18T05:01:55;38.38;;;20.75;;
53646;SDS011;39550;52.230;5.194;2022-12-18T05:04:21;37.17;;;19.77;;
53646;SDS011;39550;52.230;5.194;2022-12-18T05:06:47;36.13;;;22.75;;
53646;SDS011;39550;52.230;5.194;2022-12-18T05:09:13;33.65;;;19.00;;
53646;SDS011;39550;52.230;5.194;2022-12-18T05:11:38;36.10;;;20.60;;
53646;SDS011;39550;52.230;5.194;2022-12-18T05:14:03;36.20;;;21.35;;
53646;SDS011;39550;52.230;5.194;2022-12-18T05:16:29;37.63;;;21.00;;
53646;SDS011;39550;52.230;5.194;2022-12-18T05:18:54;37.33;;;20.30;;
53646;SDS011;39550;52.230;5.194;2022-12-18T05:21:19;34.40;;;20.65;;
53646;SDS011;39550;52.230;5.194;2022-12-18T05:23:45;36.25;;;20.33;;
53646;SDS011;39550;52.230;5.194;2022-12-18T05:26:13;34.92;;;20.73;;
53646;SDS011;39550;52.230;5.194;2022-12-18T05:28:41;34.33;;;18.17;;
53646;SDS011;39550;52.230;5.194;2022-12-18T05:31:06;33.92;;;19.73;;
53646;SDS011;39550;52.230;5.194;2022-12-18T05:33:32;34.65;;;18.83;;
53646;SDS011;39550;52.230;5.194;2022-12-18T05:36:00;34.42;;;19.55;;
53646;SDS011;39550;52.230;5.194;2022-12-18T05:38:27;32.45;;;19.20;;
53646;SDS011;39550;52.230;5.194;2022-12-18T05:40:53;33.88;;;19.70;;
53646;SDS011;39550;52.230;5.194;2022-12-18T05:43:19;32.17;;;18.63;;
53646;SDS011;39550;52.230;5.194;2022-12-18T05:45:46;36.05;;;19.52;;
53646;SDS011;39550;52.230;5.194;2022-12-18T05:48:12;35.70;;;20.83;;
53646;SDS011;39550;52.230;5.194;2022-12-18T05:50:38;35.17;;;20.40;;
53646;SDS011;39550;52.230;5.194;2022-12-18T05:53:05;34.63;;;19.67;;
53646;SDS011;39550;52.230;5.194;2022-12-18T05:55:37;33.53;;;19.38;;
53646;SDS011;39550;52.230;5.194;2022-12-18T05:58:04;36.53;;;19.25;;
53646;SDS011;39550;52.230;5.194;2022-12-18T06:00:32;33.13;;;18.88;;
53646;SDS011;39550;52.230;5.194;2022-12-18T06:02:59;32.85;;;17.95;;
53646;SDS011;39550;52.230;5.194;2022-12-18T06:05:25;33.10;;;18.58;;
53646;SDS011;39550;52.230;5.194;2022-12-18T06:07:50;33.97;;;19.13;;
53646;SDS011;39550;52.230;5.194;2022-12-18T06:10:16;30.83;;;18.40;;
53646;SDS011;39550;52.230;5.194;2022-12-18T06:12:41;30.17;;;19.58;;
53646;SDS011;39550;52.230;5.194;2022-12-18T06:15:07;33.13;;;20.00;;
53646;SDS011;39550;52.230;5.194;2022-12-18T06:17:33;35.45;;;20.83;;
53646;SDS011;39550;52.230;5.194;2022-12-18T06:19:59;31.17;;;19.77;;
53646;SDS011;39550;52.230;5.194;2022-12-18T06:22:26;34.53;;;19.25;;
53646;SDS011;39550;52.230;5.194;2022-12-18T06:24:52;32.85;;;19.15;;
53646;SDS011;39550;52.230;5.194;2022-12-18T06:27:17;31.80;;;18.15;;
53646;SDS011;39550;52.230;5.194;2022-12-18T06:29:43;30.67;;;17.25;;
53646;SDS011;39550;52.230;5.194;2022-12-18T06:32:08;33.70;;;18.48;;
53646;SDS011;39550;52.230;5.194;2022-12-18T06:34:34;30.13;;;18.15;;
53646;SDS011;39550;52.230;5.194;2022-12-18T06:37:01;29.23;;;17.85;;
53646;SDS011;39550;52.230;5.194;2022-12-18T06:39:27;33.25;;;19.10;;
53646;SDS011;39550;52.230;5.194;2022-12-18T06:41:52;29.52;;;19.08;;
53646;SDS011;39550;52.230;5.194;2022-12-18T06:44:18;31.88;;;18.58;;
53646;SDS011;39550;52.230;5.194;2022-12-18T06:46:43;32.90;;;18.05;;
53646;SDS011;39550;52.230;5.194;2022-12-18T06:49:09;31.73;;;19.58;;
53646;SDS011;39550;52.230;5.194;2022-12-18T06:51:34;30.52;;;18.60;;
53646;SDS011;39550;52.230;5.194;2022-12-18T06:54:00;30.63;;;18.05;;
53646;SDS011;39550;52.230;5.194;2022-12-18T06:56:25;27.73;;;16.98;;
53646;SDS011;39550;52.230;5.194;2022-12-18T06:58:51;31.55;;;17.48;;
53646;SDS011;39550;52.230;5.194;2022-12-18T07:01:17;27.45;;;17.60;;
53646;SDS011;39550;52.230;5.194;2022-12-18T07:03:42;29.83;;;19.02;;
53646;SDS011;39550;52.230;5.194;2022-12-18T07:06:15;27.23;;;16.10;;
53646;SDS011;39550;52.230;5.194;2022-12-18T07:08:45;28.02;;;18.00;;
53646;SDS011;39550;52.230;5.194;2022-12-18T07:11:11;27.23;;;16.58;;
53646;SDS011;39550;52.230;5.194;2022-12-18T07:13:40;28.38;;;18.05;;
53646;SDS011;39550;52.230;5.194;2022-12-18T07:16:11;26.30;;;18.02;;
53646;SDS011;39550;52.230;5.194;2022-12-18T07:18:38;24.23;;;17.02;;
53646;SDS011;39550;52.230;5.194;2022-12-18T07:21:07;27.13;;;16.13;;
53646;SDS011;39550;52.230;5.194;2022-12-18T07:23:39;24.55;;;16.08;;
53646;SDS011;39550;52.230;5.194;2022-12-18T07:26:09;29.13;;;15.75;;
53646;SDS011;39550;52.230;5.194;2022-12-18T07:28:36;25.23;;;14.70;;
53646;SDS011;39550;52.230;5.194;2022-12-18T07:31:03;30.10;;;15.32;;
53646;SDS011;39550;52.230;5.194;2022-12-18T07:33:30;26.08;;;15.77;;
53646;SDS011;39550;52.230;5.194;2022-12-18T07:35:58;25.73;;;17.33;;
53646;SDS011;39550;52.230;5.194;2022-12-18T07:38:24;26.20;;;17.02;;
53646;SDS011;39550;52.230;5.194;2022-12-18T07:40:49;24.60;;;14.73;;
53646;SDS011;39550;52.230;5.194;2022-12-18T07:43:14;24.85;;;15.02;;
53646;SDS011;39550;52.230;5.194;2022-12-18T07:45:39;25.58;;;15.32;;
53646;SDS011;39550;52.230;5.194;2022-12-18T07:48:05;27.40;;;17.05;;
53646;SDS011;39550;52.230;5.194;2022-12-18T07:50:33;24.95;;;15.15;;
53646;SDS011;39550;52.230;5.194;2022-12-18T07:52:59;27.00;;;15.43;;
53646;SDS011;39550;52.230;5.194;2022-12-18T07:55:28;24.48;;;15.63;;
53646;SDS011;39550;52.230;5.194;2022-12-18T07:57:55;23.38;;;14.63;;
53646;SDS011;39550;52.230;5.194;2022-12-18T08:00:20;24.17;;;15.38;;
53646;SDS011;39550;52.230;5.194;2022-12-18T08:02:46;23.25;;;14.93;;
53646;SDS011;39550;52.230;5.194;2022-12-18T08:05:12;22.83;;;14.63;;
53646;SDS011;39550;52.230;5.194;2022-12-18T08:07:38;25.63;;;15.13;;
53646;SDS011;39550;52.230;5.194;2022-12-18T08:10:04;24.25;;;15.63;;
53646;SDS011;39550;52.230;5.194;2022-12-18T08:12:30;23.15;;;15.45;;
53646;SDS011;39550;52.230;5.194;2022-12-18T08:14:55;25.60;;;15.05;;
53646;SDS011;39550;52.230;5.194;2022-12-18T08:17:20;24.55;;;13.65;;
53646;SDS011;39550;52.230;5.194;2022-12-18T08:19:46;25.25;;;14.25;;
53646;SDS011;39550;52.230;5.194;2022-12-18T08:22:11;21.38;;;13.88;;
53646;SDS011;39550;52.230;5.194;2022-12-18T08:24:36;20.52;;;12.85;;
53646;SDS011;39550;52.230;5.194;2022-12-18T08:27:02;22.35;;;13.43;;
53646;SDS011;39550;52.230;5.194;2022-12-18T08:29:27;24.15;;;14.07;;
53646;SDS011;39550;52.230;5.194;2022-12-18T08:31:53;20.20;;;13.63;;
53646;SDS011;39550;52.230;5.194;2022-12-18T08:34:18;24.75;;;14.30;;
53646;SDS011;39550;52.230;5.194;2022-12-18T08:36:44;24.20;;;13.95;;
53646;SDS011;39550;52.230;5.194;2022-12-18T08:39:09;22.20;;;13.13;;
53646;SDS011;39550;52.230;5.194;2022-12-18T08:41:34;20.13;;;12.70;;
53646;SDS011;39550;52.230;5.194;2022-12-18T08:44:04;22.65;;;14.30;;
53646;SDS011;39550;52.230;5.194;2022-12-18T08:46:51;20.48;;;13.40;;
53646;SDS011;39550;52.230;5.194;2022-12-18T08:49:16;19.30;;;12.88;;
53646;SDS011;39550;52.230;5.194;2022-12-18T08:51:42;18.90;;;13.70;;
53646;SDS011;39550;52.230;5.194;2022-12-18T08:54:08;20.23;;;13.57;;
53646;SDS011;39550;52.230;5.194;2022-12-18T08:56:37;20.40;;;13.32;;
53646;SDS011;39550;52.230;5.194;2022-12-18T08:59:02;20.40;;;13.50;;
53646;SDS011;39550;52.230;5.194;2022-12-18T09:01:29;21.17;;;15.10;;
53646;SDS011;39550;52.230;5.194;2022-12-18T09:03:54;22.15;;;14.52;;
53646;SDS011;39550;52.230;5.194;2022-12-18T09:06:20;21.50;;;14.35;;
53646;SDS011;39550;52.230;5.194;2022-12-18T09:08:46;20.63;;;13.40;;
53646;SDS011;39550;52.230;5.194;2022-12-18T09:11:45;22.15;;;13.70;;
53646;SDS011;39550;52.230;5.194;2022-12-18T09:14:03;20.15;;;13.57;;
53646;SDS011;39550;52.230;5.194;2022-12-18T09:16:29;20.17;;;12.52;;
53646;SDS011;39550;52.230;5.194;2022-12-18T09:18:55;19.15;;;13.15;;
53646;SDS011;39550;52.230;5.194;2022-12-18T09:21:24;20.25;;;12.45;;
53646;SDS011;39550;52.230;5.194;2022-12-18T09:23:52;19.17;;;12.45;;
53646;SDS011;39550;52.230;5.194;2022-12-18T09:26:20;20.58;;;12.55;;
53646;SDS011;39550;52.230;5.194;2022-12-18T09:28:46;18.55;;;13.23;;
53646;SDS011;39550;52.230;5.194;2022-12-18T09:31:11;19.30;;;12.88;;
53646;SDS011;39550;52.230;5.194;2022-12-18T09:33:40;21.08;;;13.02;;
53646;SDS011;39550;52.230;5.194;2022-12-18T09:36:07;19.13;;;13.15;;
53646;SDS011;39550;52.230;5.194;2022-12-18T09:38:34;19.83;;;12.60;;
53646;SDS011;39550;52.230;5.194;2022-12-18T09:47:33;17.40;;;13.25;;
53646;SDS011;39550;52.230;5.194;2022-12-18T09:50:13;18.63;;;13.18;;
53646;SDS011;39550;52.230;5.194;2022-12-18T09:52:57;18.50;;;13.40;;
53646;SDS011;39550;52.230;5.194;2022-12-18T09:55:32;19.48;;;13.35;;
53646;SDS011;39550;52.230;5.194;2022-12-18T09:58:24;17.80;;;12.70;;
53646;SDS011;39550;52.230;5.194;2022-12-18T10:00:53;18.98;;;13.02;;
53646;SDS011;39550;52.230;5.194;2022-12-18T10:03:19;17.70;;;12.45;;
53646;SDS011;39550;52.230;5.194;2022-12-18T10:11:40;19.88;;;13.57;;
53646;SDS011;39550;52.230;5.194;2022-12-18T10:22:29;17.65;;;11.90;;
53646;SDS011;39550;52.230;5.194;2022-12-18T10:25:09;18.67;;;12.23;;
53646;SDS011;39550;52.230;5.194;2022-12-18T10:27:45;17.02;;;12.45;;
53646;SDS011;39550;52.230;5.194;2022-12-18T10:30:12;19.33;;;12.90;;
53646;SDS011;39550;52.230;5.194;2022-12-18T10:32:42;20.25;;;13.13;;
53646;SDS011;39550;52.230;5.194;2022-12-18T10:35:11;20.75;;;12.48;;
53646;SDS011;39550;52.230;5.194;2022-12-18T10:40:28;17.35;;;12.23;;
53646;SDS011;39550;52.230;5.194;2022-12-18T10:43:04;18.70;;;13.45;;
53646;SDS011;39550;52.230;5.194;2022-12-18T10:45:31;18.80;;;13.07;;
53646;SDS011;39550;52.230;5.194;2022-12-18T10:47:56;20.88;;;13.20;;
53646;SDS011;39550;52.230;5.194;2022-12-18T10:50:25;19.73;;;11.57;;
53646;SDS011;39550;52.230;5.194;2022-12-18T10:52:55;16.80;;;12.35;;
53646;SDS011;39550;52.230;5.194;2022-12-18T10:55:22;17.75;;;12.30;;
53646;SDS011;39550;52.230;5.194;2022-12-18T10:57:49;17.98;;;12.05;;
53646;SDS011;39550;52.230;5.194;2022-12-18T11:02:54;15.73;;;11.32;;
53646;SDS011;39550;52.230;5.194;2022-12-18T11:07:54;17.02;;;12.00;;
53646;SDS011;39550;52.230;5.194;2022-12-18T11:10:20;18.75;;;12.32;;
53646;SDS011;39550;52.230;5.194;2022-12-18T11:12:48;19.58;;;12.40;;
53646;SDS011;39550;52.230;5.194;2022-12-18T11:15:18;16.58;;;11.00;;
53646;SDS011;39550;52.230;5.194;2022-12-18T11:17:47;19.10;;;10.60;;
53646;SDS011;39550;52.230;5.194;2022-12-18T11:20:19;16.45;;;11.02;;
53646;SDS011;39550;52.230;5.194;2022-12-18T11:23:21;16.70;;;10.93;;
53646;SDS011;39550;52.230;5.194;2022-12-18T11:25:40;18.58;;;12.45;;
53646;SDS011;39550;52.230;5.194;2022-12-18T11:28:27;13.70;;;10.93;;
53646;SDS011;39550;52.230;5.194;2022-12-18T11:33:34;17.15;;;12.38;;
53646;SDS011;39550;52.230;5.194;2022-12-18T11:36:01;16.95;;;11.13;;
53646;SDS011;39550;52.230;5.194;2022-12-18T11:38:30;16.00;;;11.23;;
53646;SDS011;39550;52.230;5.194;2022-12-18T11:44:10;15.80;;;12.40;;
53646;SDS011;39550;52.230;5.194;2022-12-18T11:46:40;17.45;;;12.13;;
53646;SDS011;39550;52.230;5.194;2022-12-18T11:49:25;17.48;;;12.35;;
53646;SDS011;39550;52.230;5.194;2022-12-18T11:54:44;16.85;;;11.40;;
53646;SDS011;39550;52.230;5.194;2022-12-18T12:10:45;17.38;;;12.10;;
53646;SDS011;39550;52.230;5.194;2022-12-18T12:19:15;15.57;;;11.02;;
53646;SDS011;39550;52.230;5.194;2022-12-18T12:22:00;15.10;;;11.07;;
53646;SDS011;39550;52.230;5.194;2022-12-18T12:35:36;18.15;;;12.30;;
53646;SDS011;39550;52.230;5.194;2022-12-18T12:40:59;14.52;;;10.27;;
53646;SDS011;39550;52.230;5.194;2022-12-18T12:46:10;15.45;;;10.95;;
53646;SDS011;39550;52.230;5.194;2022-12-18T12:51:04;15.73;;;11.38;;
53646;SDS011;39550;52.230;5.194;2022-12-18T12:53:38;14.60;;;10.55;;
53646;SDS011;39550;52.230;5.194;2022-12-18T12:56:04;16.40;;;11.65;;
53646;SDS011;39550;52.230;5.194;2022-12-18T13:01:36;15.52;;;10.38;;
53646;SDS011;39550;52.230;5.194;2022-12-18T13:09:23;16.60;;;10.43;;
53646;SDS011;39550;52.230;5.194;2022-12-18T13:11:49;17.88;;;10.38;;
53646;SDS011;39550;52.230;5.194;2022-12-18T13:14:34;14.93;;;10.68;;
53646;SDS011;39550;52.230;5.194;2022-12-18T13:17:15;15.02;;;9.52;;
53646;SDS011;39550;52.230;5.194;2022-12-18T13:19:50;15.43;;;9.15;;
53646;SDS011;39550;52.230;5.194;2022-12-18T13:22:24;15.73;;;10.02;;
53646;SDS011;39550;52.230;5.194;2022-12-18T13:24:55;16.17;;;10.80;;
53646;SDS011;39550;52.230;5.194;2022-12-18T13:30:24;15.68;;;10.35;;
53646;SDS011;39550;52.230;5.194;2022-12-18T13:41:02;17.75;;;9.82;;
53646;SDS011;39550;52.230;5.194;2022-12-18T13:43:53;16.95;;;10.38;;
53646;SDS011;39550;52.230;5.194;2022-12-18T13:48:58;15.15;;;10.05;;
53646;SDS011;39550;52.230;5.194;2022-12-18T13:51:27;18.05;;;11.65;;
53646;SDS011;39550;52.230;5.194;2022-12-18T13:56:59;15.73;;;10.43;;
53646;SDS011;39550;52.230;5.194;2022-12-18T13:59:26;16.15;;;11.02;;
53646;SDS011;39550;52.230;5.194;2022-12-18T14:01:59;16.45;;;10.63;;
53646;SDS011;39550;52.230;5.194;2022-12-18T14:04:31;14.20;;;10.27;;
53646;SDS011;39550;52.230;5.194;2022-12-18T14:07:05;15.93;;;10.73;;
53646;SDS011;39550;52.230;5.194;2022-12-18T14:09:37;15.52;;;10.80;;
53646;SDS011;39550;52.230;5.194;2022-12-18T14:12:11;15.23;;;11.20;;
53646;SDS011;39550;52.230;5.194;2022-12-18T14:15:22;15.45;;;10.43;;
53646;SDS011;39550;52.230;5.194;2022-12-18T14:17:50;15.35;;;10.70;;
53646;SDS011;39550;52.230;5.194;2022-12-18T14:22:45;17.52;;;11.15;;
53646;SDS011;39550;52.230;5.194;2022-12-18T14:27:38;16.00;;;11.48;;
53646;SDS011;39550;52.230;5.194;2022-12-18T14:35:37;15.70;;;10.38;;
53646;SDS011;39550;52.230;5.194;2022-12-18T14:38:38;17.35;;;10.70;;
53646;SDS011;39550;52.230;5.194;2022-12-18T14:41:19;15.18;;;9.25;;
53646;SDS011;39550;52.230;5.194;2022-12-18T14:43:44;15.48;;;10.07;;
53646;SDS011;39550;52.230;5.194;2022-12-18T14:52:22;16.98;;;10.95;;
53646;SDS011;39550;52.230;5.194;2022-12-18T14:54:52;16.98;;;10.95;;
53646;SDS011;39550;52.230;5.194;2022-12-18T14:57:22;16.27;;;10.80;;
53646;SDS011;39550;52.230;5.194;2022-12-18T14:59:50;16.50;;;12.05;;
53646;SDS011;39550;52.230;5.194;2022-12-18T15:02:25;15.10;;;9.45;;
53646;SDS011;39550;52.230;5.194;2022-12-18T15:04:59;15.77;;;10.48;;
53646;SDS011;39550;52.230;5.194;2022-12-18T15:07:46;17.52;;;11.30;;
53646;SDS011;39550;52.230;5.194;2022-12-18T15:10:16;15.55;;;11.00;;
53646;SDS011;39550;52.230;5.194;2022-12-18T15:12:48;15.88;;;10.75;;
53646;SDS011;39550;52.230;5.194;2022-12-18T15:18:01;18.98;;;11.68;;
53646;SDS011;39550;52.230;5.194;2022-12-18T15:21:06;16.83;;;10.45;;
53646;SDS011;39550;52.230;5.194;2022-12-18T15:26:09;14.98;;;11.25;;
53646;SDS011;39550;52.230;5.194;2022-12-18T15:36:18;17.85;;;10.55;;
53646;SDS011;39550;52.230;5.194;2022-12-18T15:38:46;15.57;;;11.23;;
53646;SDS011;39550;52.230;5.194;2022-12-18T15:41:16;18.13;;;10.95;;
53646;SDS011;39550;52.230;5.194;2022-12-18T15:43:43;15.32;;;10.77;;
53646;SDS011;39550;52.230;5.194;2022-12-18T15:46:13;16.00;;;10.02;;
53646;SDS011;39550;52.230;5.194;2022-12-18T15:48:52;20.00;;;8.97;;
53646;SDS011;39550;52.230;5.194;2022-12-18T15:56:16;20.42;;;12.48;;
53646;SDS011;39550;52.230;5.194;2022-12-18T15:59:00;18.17;;;11.88;;
53646;SDS011;39550;52.230;5.194;2022-12-18T16:01:27;17.65;;;11.77;;
53646;SDS011;39550;52.230;5.194;2022-12-18T16:03:54;16.65;;;11.60;;
53646;SDS011;39550;52.230;5.194;2022-12-18T16:06:21;16.38;;;10.93;;
53646;SDS011;39550;52.230;5.194;2022-12-18T16:08:47;19.35;;;12.63;;
53646;SDS011;39550;52.230;5.194;2022-12-18T16:11:20;16.17;;;11.27;;
53646;SDS011;39550;52.230;5.194;2022-12-18T16:14:19;17.15;;;12.75;;
53646;SDS011;39550;52.230;5.194;2022-12-18T16:16:47;17.80;;;12.45;;
53646;SDS011;39550;52.230;5.194;2022-12-18T16:19:18;16.85;;;12.02;;
53646;SDS011;39550;52.230;5.194;2022-12-18T16:21:43;17.40;;;11.40;;
53646;SDS011;39550;52.230;5.194;2022-12-18T16:24:23;17.38;;;11.48;;
53646;SDS011;39550;52.230;5.194;2022-12-18T16:26:51;17.23;;;10.95;;
53646;SDS011;39550;52.230;5.194;2022-12-18T16:29:17;16.92;;;10.77;;
53646;SDS011;39550;52.230;5.194;2022-12-18T16:31:43;15.88;;;10.27;;
53646;SDS011;39550;52.230;5.194;2022-12-18T16:34:22;18.83;;;11.38;;
53646;SDS011;39550;52.230;5.194;2022-12-18T16:36:51;15.60;;;11.15;;
53646;SDS011;39550;52.230;5.194;2022-12-18T16:39:18;18.30;;;11.60;;
53646;SDS011;39550;52.230;5.194;2022-12-18T16:41:44;19.60;;;11.43;;
53646;SDS011;39550;52.230;5.194;2022-12-18T16:44:10;18.75;;;12.30;;
53646;SDS011;39550;52.230;5.194;2022-12-18T16:46:36;17.25;;;11.55;;
53646;SDS011;39550;52.230;5.194;2022-12-18T16:49:02;17.55;;;10.75;;
53646;SDS011;39550;52.230;5.194;2022-12-18T16:51:28;18.30;;;11.40;;
53646;SDS011;39550;52.230;5.194;2022-12-18T16:53:54;18.65;;;11.88;;
53646;SDS011;39550;52.230;5.194;2022-12-18T16:56:20;21.58;;;11.80;;
53646;SDS011;39550;52.230;5.194;2022-12-18T16:58:49;17.40;;;11.00;;
53646;SDS011;39550;52.230;5.194;2022-12-18T17:01:15;19.00;;;12.45;;
53646;SDS011;39550;52.230;5.194;2022-12-18T17:03:41;17.75;;;11.60;;
53646;SDS011;39550;52.230;5.194;2022-12-18T17:06:06;18.50;;;12.70;;
53646;SDS011;39550;52.230;5.194;2022-12-18T17:08:31;18.45;;;11.65;;
53646;SDS011;39550;52.230;5.194;2022-12-18T17:11:06;16.02;;;11.88;;
53646;SDS011;39550;52.230;5.194;2022-12-18T17:13:32;16.55;;;11.85;;
53646;SDS011;39550;52.230;5.194;2022-12-18T17:16:01;19.67;;;12.50;;
53646;SDS011;39550;52.230;5.194;2022-12-18T17:18:31;18.20;;;12.57;;
53646;SDS011;39550;52.230;5.194;2022-12-18T17:21:04;20.65;;;13.25;;
53646;SDS011;39550;52.230;5.194;2022-12-18T17:23:31;20.08;;;13.60;;